sensor_id;sensor_type;location;lat;lon;timestamp;pressure;altitude;pressure_sealevel;temperature;humidity
71964;BME280;59834;52.124;5.422;2023-06-22T00:00:51;102003.56;;;18.99;77.44
71964;BME280;59834;52.124;5.422;2023-06-22T00:03:19;101987.28;;;18.93;77.69
71964;BME280;59834;52.124;5.422;2023-06-22T00:05:47;101987.69;;;18.88;78.01
71964;BME280;59834;52.124;5.422;2023-06-22T00:08:14;101995.97;;;18.83;77.62
71964;BME280;59834;52.124;5.422;2023-06-22T00:10:41;101989.97;;;18.81;77.87
71964;BME280;59834;52.124;5.422;2023-06-22T00:13:09;101998.41;;;18.75;78.44
71964;BME280;59834;52.124;5.422;2023-06-22T00:15:37;102002.50;;;18.68;79.54
71964;BME280;59834;52.124;5.422;2023-06-22T00:18:06;101991.28;;;18.65;79.82
71964;BME280;59834;52.124;5.422;2023-06-22T00:20:33;101986.09;;;18.63;80.00
71964;BME280;59834;52.124;5.422;2023-06-22T00:23:05;101989.47;;;18.54;80.60
71964;BME280;59834;52.124;5.422;2023-06-22T00:25:35;101996.13;;;18.48;81.19
71964;BME280;59834;52.124;5.422;2023-06-22T00:28:02;101992.13;;;18.43;81.01
71964;BME280;59834;52.124;5.422;2023-06-22T00:30:30;101989.47;;;18.43;81.82
71964;BME280;59834;52.124;5.422;2023-06-22T00:32:58;101984.66;;;18.36;81.07
71964;BME280;59834;52.124;5.422;2023-06-22T00:35:26;101987.53;;;18.33;81.06
71964;BME280;59834;52.124;5.422;2023-06-22T00:37:56;101971.63;;;18.33;81.36
71964;BME280;59834;52.124;5.422;2023-06-22T00:40:32;101978.66;;;18.34;81.82
71964;BME280;59834;52.124;5.422;2023-06-22T00:42:59;101976.22;;;18.31;81.78
71964;BME280;59834;52.124;5.422;2023-06-22T00:45:26;101981.63;;;18.30;81.97
71964;BME280;59834;52.124;5.422;2023-06-22T00:47:56;101977.41;;;18.27;82.20
71964;BME280;59834;52.124;5.422;2023-06-22T00:50:25;101969.00;;;18.22;82.57
71964;BME280;59834;52.124;5.422;2023-06-22T00:52:55;101967.31;;;18.21;82.97
71964;BME280;59834;52.124;5.422;2023-06-22T00:55:23;101979.09;;;18.17;83.04
71964;BME280;59834;52.124;5.422;2023-06-22T00:57:50;101975.72;;;18.15;82.00
71964;BME280;59834;52.124;5.422;2023-06-22T01:00:17;101976.56;;;18.16;82.88
71964;BME280;59834;52.124;5.422;2023-06-22T01:02:46;101970.78;;;18.10;82.62
71964;BME280;59834;52.124;5.422;2023-06-22T01:05:14;101966.81;;;18.05;83.81
71964;BME280;59834;52.124;5.422;2023-06-22T01:11:16;101967.28;;;17.87;83.58
71964;BME280;59834;52.124;5.422;2023-06-22T01:13:53;101973.75;;;17.83;83.77
71964;BME280;59834;52.124;5.422;2023-06-22T01:16:31;101983.63;;;17.81;83.69
71964;BME280;59834;52.124;5.422;2023-06-22T01:19:01;101985.25;;;17.71;84.17
71964;BME280;59834;52.124;5.422;2023-06-22T01:21:34;101992.44;;;17.69;83.44
71964;BME280;59834;52.124;5.422;2023-06-22T01:29:28;101967.75;;;17.57;83.91
71964;BME280;59834;52.124;5.422;2023-06-22T01:31:57;101966.28;;;17.53;84.59
71964;BME280;59834;52.124;5.422;2023-06-22T01:34:26;101974.34;;;17.52;84.21
71964;BME280;59834;52.124;5.422;2023-06-22T01:36:54;101971.47;;;17.55;83.59
71964;BME280;59834;52.124;5.422;2023-06-22T01:39:21;101971.25;;;17.58;84.12
71964;BME280;59834;52.124;5.422;2023-06-22T01:41:48;101976.78;;;17.55;83.99
71964;BME280;59834;52.124;5.422;2023-06-22T01:44:15;101976.03;;;17.53;84.13
71964;BME280;59834;52.124;5.422;2023-06-22T01:46:42;101967.00;;;17.44;83.25
71964;BME280;59834;52.124;5.422;2023-06-22T01:49:10;101971.03;;;17.37;83.73
71964;BME280;59834;52.124;5.422;2023-06-22T01:51:37;101970.41;;;17.33;83.80
71964;BME280;59834;52.124;5.422;2023-06-22T01:54:06;101972.34;;;17.31;83.75
71964;BME280;59834;52.124;5.422;2023-06-22T01:56:33;101967.06;;;17.31;84.56
71964;BME280;59834;52.124;5.422;2023-06-22T02:01:51;101972.56;;;17.28;84.14
71964;BME280;59834;52.124;5.422;2023-06-22T02:04:24;101970.28;;;17.24;85.16
71964;BME280;59834;52.124;5.422;2023-06-22T02:06:56;101964.34;;;17.20;85.89
71964;BME280;59834;52.124;5.422;2023-06-22T02:09:26;101963.63;;;17.18;86.55
71964;BME280;59834;52.124;5.422;2023-06-22T02:11:55;101955.16;;;17.13;86.97
71964;BME280;59834;52.124;5.422;2023-06-22T02:14:23;101955.59;;;17.07;87.57
71964;BME280;59834;52.124;5.422;2023-06-22T02:16:51;101960.19;;;17.05;86.83
71964;BME280;59834;52.124;5.422;2023-06-22T02:19:22;101955.72;;;17.05;86.97
71964;BME280;59834;52.124;5.422;2023-06-22T02:21:49;101952.34;;;17.03;87.00
71964;BME280;59834;52.124;5.422;2023-06-22T02:24:16;101950.03;;;16.99;86.99
71964;BME280;59834;52.124;5.422;2023-06-22T02:26:43;101948.59;;;16.94;87.25
71964;BME280;59834;52.124;5.422;2023-06-22T02:29:12;101954.44;;;16.87;88.32
71964;BME280;59834;52.124;5.422;2023-06-22T02:31:38;101955.72;;;16.81;88.05
71964;BME280;59834;52.124;5.422;2023-06-22T02:34:06;101958.25;;;16.83;88.29
71964;BME280;59834;52.124;5.422;2023-06-22T02:36:32;101958.16;;;16.84;87.49
71964;BME280;59834;52.124;5.422;2023-06-22T02:38:59;101956.44;;;16.83;87.64
71964;BME280;59834;52.124;5.422;2023-06-22T02:41:28;101953.50;;;16.75;87.74
71964;BME280;59834;52.124;5.422;2023-06-22T02:43:54;101961.00;;;16.68;88.22
71964;BME280;59834;52.124;5.422;2023-06-22T02:46:21;101956.06;;;16.64;88.50
71964;BME280;59834;52.124;5.422;2023-06-22T02:48:48;101943.06;;;16.61;88.75
71964;BME280;59834;52.124;5.422;2023-06-22T02:51:15;101950.03;;;16.62;89.02
71964;BME280;59834;52.124;5.422;2023-06-22T02:53:41;101948.66;;;16.56;89.55
71964;BME280;59834;52.124;5.422;2023-06-22T02:56:11;101944.44;;;16.54;90.01
71964;BME280;59834;52.124;5.422;2023-06-22T02:58:39;101945.50;;;16.51;89.92
71964;BME280;59834;52.124;5.422;2023-06-22T03:01:06;101942.97;;;16.49;90.61
71964;BME280;59834;52.124;5.422;2023-06-22T03:03:32;101943.22;;;16.46;90.56
71964;BME280;59834;52.124;5.422;2023-06-22T03:06:00;101948.56;;;16.45;90.74
71964;BME280;59834;52.124;5.422;2023-06-22T03:08:29;101946.06;;;16.43;90.82
71964;BME280;59834;52.124;5.422;2023-06-22T03:10:56;101940.25;;;16.38;90.98
71964;BME280;59834;52.124;5.422;2023-06-22T03:13:23;101952.59;;;16.38;91.62
71964;BME280;59834;52.124;5.422;2023-06-22T03:15:50;101954.63;;;16.34;90.97
71964;BME280;59834;52.124;5.422;2023-06-22T03:18:17;101956.50;;;16.32;90.86
71964;BME280;59834;52.124;5.422;2023-06-22T03:20:43;101951.78;;;16.37;91.33
71964;BME280;59834;52.124;5.422;2023-06-22T03:23:10;101949.97;;;16.38;90.26
71964;BME280;59834;52.124;5.422;2023-06-22T03:25:36;101942.13;;;16.36;90.31
71964;BME280;59834;52.124;5.422;2023-06-22T03:28:03;101952.50;;;16.39;90.02
71964;BME280;59834;52.124;5.422;2023-06-22T03:30:29;101937.72;;;16.37;91.33
71964;BME280;59834;52.124;5.422;2023-06-22T03:32:56;101928.09;;;16.36;90.33
71964;BME280;59834;52.124;5.422;2023-06-22T03:35:23;101930.41;;;16.40;90.24
71964;BME280;59834;52.124;5.422;2023-06-22T03:37:50;101927.56;;;16.43;89.49
71964;BME280;59834;52.124;5.422;2023-06-22T03:40:16;101920.88;;;16.50;89.26
71964;BME280;59834;52.124;5.422;2023-06-22T03:42:43;101918.03;;;16.54;89.50
71964;BME280;59834;52.124;5.422;2023-06-22T03:45:10;101935.44;;;16.56;89.07
71964;BME280;59834;52.124;5.422;2023-06-22T03:47:36;101929.31;;;16.56;88.50
71964;BME280;59834;52.124;5.422;2023-06-22T03:50:03;101928.13;;;16.60;89.27
71964;BME280;59834;52.124;5.422;2023-06-22T03:52:30;101918.31;;;16.62;88.86
71964;BME280;59834;52.124;5.422;2023-06-22T03:54:57;101914.81;;;16.61;87.78
71964;BME280;59834;52.124;5.422;2023-06-22T03:57:24;101919.88;;;16.64;88.13
71964;BME280;59834;52.124;5.422;2023-06-22T03:59:50;101922.41;;;16.66;87.84
71964;BME280;59834;52.124;5.422;2023-06-22T04:02:17;101918.72;;;16.68;88.73
71964;BME280;59834;52.124;5.422;2023-06-22T04:04:43;101919.34;;;16.72;88.13
71964;BME280;59834;52.124;5.422;2023-06-22T04:07:10;101914.59;;;16.77;88.76
71964;BME280;59834;52.124;5.422;2023-06-22T04:09:37;101917.91;;;16.92;88.28
71964;BME280;59834;52.124;5.422;2023-06-22T04:12:04;101908.84;;;17.31;86.34
71964;BME280;59834;52.124;5.422;2023-06-22T04:14:30;101908.28;;;17.85;84.74
71964;BME280;59834;52.124;5.422;2023-06-22T04:16:58;101909.09;;;18.65;80.74
71964;BME280;59834;52.124;5.422;2023-06-22T04:19:24;101903.56;;;19.53;77.19
71964;BME280;59834;52.124;5.422;2023-06-22T04:21:51;101903.69;;;20.24;73.61
71964;BME280;59834;52.124;5.422;2023-06-22T04:24:18;101906.06;;;20.67;71.58
71964;BME280;59834;52.124;5.422;2023-06-22T04:26:46;101902.19;;;21.10;69.64
71964;BME280;59834;52.124;5.422;2023-06-22T04:29:13;101904.56;;;21.23;69.35
71964;BME280;59834;52.124;5.422;2023-06-22T04:31:40;101897.25;;;21.64;66.62
71964;BME280;59834;52.124;5.422;2023-06-22T04:34:08;101896.56;;;21.99;65.52
71964;BME280;59834;52.124;5.422;2023-06-22T04:36:41;101895.22;;;22.13;66.02
71964;BME280;59834;52.124;5.422;2023-06-22T04:39:11;101895.94;;;22.25;64.65
71964;BME280;59834;52.124;5.422;2023-06-22T04:41:41;101900.16;;;22.45;64.57
71964;BME280;59834;52.124;5.422;2023-06-22T04:44:15;101885.53;;;22.95;62.57
71964;BME280;59834;52.124;5.422;2023-06-22T04:46:56;101896.59;;;23.18;61.76
71964;BME280;59834;52.124;5.422;2023-06-22T04:49:35;101891.03;;;23.37;60.67
71964;BME280;59834;52.124;5.422;2023-06-22T04:52:08;101893.97;;;23.26;61.61
71964;BME280;59834;52.124;5.422;2023-06-22T04:54:37;101893.72;;;23.37;61.48
71964;BME280;59834;52.124;5.422;2023-06-22T04:57:07;101899.16;;;23.53;60.48
71964;BME280;59834;52.124;5.422;2023-06-22T04:59:38;101903.19;;;23.14;61.33
71964;BME280;59834;52.124;5.422;2023-06-22T05:02:09;101893.66;;;23.29;60.55
71964;BME280;59834;52.124;5.422;2023-06-22T05:04:36;101897.97;;;23.04;61.05
71964;BME280;59834;52.124;5.422;2023-06-22T05:07:05;101902.25;;;22.69;62.99
71964;BME280;59834;52.124;5.422;2023-06-22T05:09:32;101906.75;;;22.69;63.43
71964;BME280;59834;52.124;5.422;2023-06-22T05:12:00;101899.22;;;22.64;63.73
71964;BME280;59834;52.124;5.422;2023-06-22T05:14:29;101896.38;;;22.83;62.97
71964;BME280;59834;52.124;5.422;2023-06-22T05:16:56;101899.28;;;22.90;63.26
71964;BME280;59834;52.124;5.422;2023-06-22T05:19:30;101896.75;;;22.98;62.99
71964;BME280;59834;52.124;5.422;2023-06-22T05:22:00;101905.63;;;22.89;63.75
71964;BME280;59834;52.124;5.422;2023-06-22T05:24:27;101902.91;;;22.99;62.87
71964;BME280;59834;52.124;5.422;2023-06-22T05:26:53;101894.41;;;23.39;61.85
71964;BME280;59834;52.124;5.422;2023-06-22T05:29:20;101890.66;;;23.76;61.34
71964;BME280;59834;52.124;5.422;2023-06-22T05:31:49;101895.03;;;23.59;61.59
71964;BME280;59834;52.124;5.422;2023-06-22T05:34:15;101903.75;;;23.61;61.78
71964;BME280;59834;52.124;5.422;2023-06-22T05:36:42;101901.34;;;24.02;60.17
71964;BME280;59834;52.124;5.422;2023-06-22T05:39:14;101910.13;;;23.42;62.56
71964;BME280;59834;52.124;5.422;2023-06-22T05:41:41;101909.19;;;23.08;63.23
71964;BME280;59834;52.124;5.422;2023-06-22T05:44:09;101913.56;;;22.81;64.73
71964;BME280;59834;52.124;5.422;2023-06-22T05:46:36;101912.03;;;22.78;64.60
71964;BME280;59834;52.124;5.422;2023-06-22T05:49:03;101910.00;;;22.45;66.00
71964;BME280;59834;52.124;5.422;2023-06-22T05:51:29;101913.75;;;22.52;66.59
71964;BME280;59834;52.124;5.422;2023-06-22T05:53:56;101913.75;;;22.15;67.16
71964;BME280;59834;52.124;5.422;2023-06-22T05:56:23;101908.22;;;21.98;68.26
71964;BME280;59834;52.124;5.422;2023-06-22T05:58:49;101914.28;;;21.91;68.98
71964;BME280;59834;52.124;5.422;2023-06-22T06:01:16;101910.47;;;23.03;66.13
71964;BME280;59834;52.124;5.422;2023-06-22T06:03:44;101912.78;;;24.20;61.55
71964;BME280;59834;52.124;5.422;2023-06-22T06:06:11;101908.13;;;24.81;60.07
71964;BME280;59834;52.124;5.422;2023-06-22T06:08:38;101901.47;;;25.59;57.05
71964;BME280;59834;52.124;5.422;2023-06-22T06:11:05;101904.97;;;24.94;58.94
71964;BME280;59834;52.124;5.422;2023-06-22T06:13:31;101905.31;;;24.91;59.04
71964;BME280;59834;52.124;5.422;2023-06-22T06:15:59;101904.44;;;24.74;58.82
71964;BME280;59834;52.124;5.422;2023-06-22T06:18:26;101892.09;;;23.88;62.59
71964;BME280;59834;52.124;5.422;2023-06-22T06:20:52;101894.38;;;24.68;59.97
71964;BME280;59834;52.124;5.422;2023-06-22T06:23:19;101893.09;;;24.38;60.77
71964;BME280;59834;52.124;5.422;2023-06-22T06:25:46;101881.88;;;24.26;60.79
71964;BME280;59834;52.124;5.422;2023-06-22T06:28:12;101892.06;;;24.81;59.68
71964;BME280;59834;52.124;5.422;2023-06-22T06:30:39;101891.94;;;25.07;58.55
71964;BME280;59834;52.124;5.422;2023-06-22T06:33:07;101888.09;;;25.34;57.81
71964;BME280;59834;52.124;5.422;2023-06-22T06:35:35;101888.09;;;25.02;58.19
71964;BME280;59834;52.124;5.422;2023-06-22T06:38:02;101886.88;;;24.88;58.86
71964;BME280;59834;52.124;5.422;2023-06-22T06:40:29;101882.38;;;25.54;57.78
71964;BME280;59834;52.124;5.422;2023-06-22T06:42:57;101879.38;;;25.49;58.06
71964;BME280;59834;52.124;5.422;2023-06-22T06:45:23;101871.78;;;25.69;56.95
71964;BME280;59834;52.124;5.422;2023-06-22T06:47:51;101876.00;;;25.63;56.91
71964;BME280;59834;52.124;5.422;2023-06-22T06:50:19;101869.00;;;25.46;57.92
71964;BME280;59834;52.124;5.422;2023-06-22T06:52:45;101870.94;;;25.68;57.02
71964;BME280;59834;52.124;5.422;2023-06-22T06:55:12;101878.03;;;25.28;57.63
71964;BME280;59834;52.124;5.422;2023-06-22T06:57:40;101870.34;;;24.92;59.15
71964;BME280;59834;52.124;5.422;2023-06-22T07:00:10;101874.53;;;24.95;58.80
71964;BME280;59834;52.124;5.422;2023-06-22T07:02:39;101867.13;;;24.73;60.41
71964;BME280;59834;52.124;5.422;2023-06-22T07:05:08;101870.63;;;24.81;60.10
71964;BME280;59834;52.124;5.422;2023-06-22T07:07:35;101873.50;;;24.80;59.81
71964;BME280;59834;52.124;5.422;2023-06-22T07:10:05;101870.97;;;24.62;59.33
71964;BME280;59834;52.124;5.422;2023-06-22T07:12:32;101868.25;;;24.54;60.04
71964;BME280;59834;52.124;5.422;2023-06-22T07:15:03;101866.75;;;24.51;59.46
71964;BME280;59834;52.124;5.422;2023-06-22T07:17:30;101872.59;;;24.46;60.48
71964;BME280;59834;52.124;5.422;2023-06-22T07:19:57;101859.47;;;24.27;60.57
71964;BME280;59834;52.124;5.422;2023-06-22T07:22:23;101871.50;;;24.23;60.47
71964;BME280;59834;52.124;5.422;2023-06-22T07:24:50;101870.41;;;24.08;60.54
71964;BME280;59834;52.124;5.422;2023-06-22T07:27:16;101862.66;;;23.88;61.59
71964;BME280;59834;52.124;5.422;2023-06-22T07:29:45;101873.88;;;23.92;60.95
71964;BME280;59834;52.124;5.422;2023-06-22T07:32:12;101872.47;;;24.14;61.07
71964;BME280;59834;52.124;5.422;2023-06-22T07:34:39;101867.50;;;24.27;60.52
71964;BME280;59834;52.124;5.422;2023-06-22T07:37:05;101865.50;;;24.29;60.41
71964;BME280;59834;52.124;5.422;2023-06-22T07:39:32;101864.59;;;24.12;61.21
71964;BME280;59834;52.124;5.422;2023-06-22T07:41:58;101857.66;;;23.93;61.00
71964;BME280;59834;52.124;5.422;2023-06-22T07:44:25;101854.28;;;23.83;61.42
71964;BME280;59834;52.124;5.422;2023-06-22T07:46:51;101847.22;;;23.74;61.32
71964;BME280;59834;52.124;5.422;2023-06-22T07:49:18;101847.25;;;23.82;60.93
71964;BME280;59834;52.124;5.422;2023-06-22T07:51:45;101839.34;;;24.07;61.61
71964;BME280;59834;52.124;5.422;2023-06-22T07:54:11;101839.91;;;24.18;60.56
71964;BME280;59834;52.124;5.422;2023-06-22T07:56:38;101835.94;;;23.88;61.33
71964;BME280;59834;52.124;5.422;2023-06-22T07:59:04;101837.72;;;23.80;62.65
71964;BME280;59834;52.124;5.422;2023-06-22T08:01:31;101841.88;;;24.16;61.96
71964;BME280;59834;52.124;5.422;2023-06-22T08:03:57;101840.81;;;24.43;60.54
71964;BME280;59834;52.124;5.422;2023-06-22T08:06:24;101829.75;;;24.38;60.46
71964;BME280;59834;52.124;5.422;2023-06-22T08:08:50;101835.47;;;24.43;60.14
71964;BME280;59834;52.124;5.422;2023-06-22T08:11:20;101828.38;;;24.26;59.49
71964;BME280;59834;52.124;5.422;2023-06-22T08:13:49;101824.69;;;24.19;59.53
71964;BME280;59834;52.124;5.422;2023-06-22T08:16:16;101814.81;;;24.19;59.30
71964;BME280;59834;52.124;5.422;2023-06-22T08:18:43;101815.00;;;24.26;59.77
71964;BME280;59834;52.124;5.422;2023-06-22T08:21:09;101810.06;;;24.56;59.64
71964;BME280;59834;52.124;5.422;2023-06-22T08:23:37;101807.25;;;24.65;59.04
71964;BME280;59834;52.124;5.422;2023-06-22T08:26:04;101806.41;;;24.65;59.36
71964;BME280;59834;52.124;5.422;2023-06-22T08:28:30;101797.69;;;24.87;58.99
71964;BME280;59834;52.124;5.422;2023-06-22T08:30:57;101789.50;;;24.73;58.85
71964;BME280;59834;52.124;5.422;2023-06-22T08:33:24;101786.00;;;24.72;59.25
71964;BME280;59834;52.124;5.422;2023-06-22T08:35:55;101789.81;;;24.61;57.52
71964;BME280;59834;52.124;5.422;2023-06-22T08:38:21;101782.06;;;24.34;57.37
71964;BME280;59834;52.124;5.422;2023-06-22T08:40:48;101776.88;;;24.32;57.54
71964;BME280;59834;52.124;5.422;2023-06-22T08:43:14;101776.97;;;24.65;57.69
71964;BME280;59834;52.124;5.422;2023-06-22T08:45:41;101781.94;;;24.68;55.95
71964;BME280;59834;52.124;5.422;2023-06-22T08:48:09;101775.78;;;24.59;56.23
71964;BME280;59834;52.124;5.422;2023-06-22T08:50:36;101770.59;;;24.66;56.47
71964;BME280;59834;52.124;5.422;2023-06-22T08:53:02;101765.88;;;25.01;55.90
71964;BME280;59834;52.124;5.422;2023-06-22T08:55:29;101763.13;;;25.50;54.88
71964;BME280;59834;52.124;5.422;2023-06-22T08:57:56;101762.44;;;25.48;53.08
71964;BME280;59834;52.124;5.422;2023-06-22T09:00:22;101764.78;;;25.51;53.85
71964;BME280;59834;52.124;5.422;2023-06-22T09:02:49;101767.25;;;25.60;54.13
71964;BME280;59834;52.124;5.422;2023-06-22T09:05:16;101764.91;;;25.57;54.57
71964;BME280;59834;52.124;5.422;2023-06-22T09:07:43;101767.84;;;25.39;53.36
71964;BME280;59834;52.124;5.422;2023-06-22T09:10:10;101769.00;;;25.37;52.88
71964;BME280;59834;52.124;5.422;2023-06-22T09:12:36;101757.81;;;25.33;50.19
71964;BME280;59834;52.124;5.422;2023-06-22T09:15:04;101759.81;;;25.31;49.28
71964;BME280;59834;52.124;5.422;2023-06-22T09:17:37;101763.50;;;25.30;48.75
71964;BME280;59834;52.124;5.422;2023-06-22T09:20:04;101762.81;;;25.36;49.29
71964;BME280;59834;52.124;5.422;2023-06-22T09:22:33;101753.81;;;25.69;48.05
71964;BME280;59834;52.124;5.422;2023-06-22T09:24:59;101760.19;;;25.68;50.22
71964;BME280;59834;52.124;5.422;2023-06-22T09:27:26;101761.34;;;25.65;51.46
71964;BME280;59834;52.124;5.422;2023-06-22T09:29:53;101765.97;;;25.96;50.75
71964;BME280;59834;52.124;5.422;2023-06-22T09:32:19;101761.16;;;26.14;50.81
71964;BME280;59834;52.124;5.422;2023-06-22T09:34:46;101759.22;;;26.46;49.51
71964;BME280;59834;52.124;5.422;2023-06-22T09:37:12;101758.31;;;26.62;50.05
71964;BME280;59834;52.124;5.422;2023-06-22T09:39:39;101758.94;;;26.41;49.21
71964;BME280;59834;52.124;5.422;2023-06-22T09:42:05;101756.34;;;26.55;49.34
71964;BME280;59834;52.124;5.422;2023-06-22T09:44:32;101751.84;;;26.71;47.73
71964;BME280;59834;52.124;5.422;2023-06-22T09:46:59;101753.41;;;26.65;47.54
71964;BME280;59834;52.124;5.422;2023-06-22T09:49:26;101746.91;;;26.37;48.79
71964;BME280;59834;52.124;5.422;2023-06-22T09:52:12;101750.13;;;26.09;49.44
71964;BME280;59834;52.124;5.422;2023-06-22T09:54:38;101747.78;;;26.06;50.75
71964;BME280;59834;52.124;5.422;2023-06-22T09:57:05;101748.19;;;25.95;51.29
71964;BME280;59834;52.124;5.422;2023-06-22T09:59:32;101741.69;;;26.12;50.88
71964;BME280;59834;52.124;5.422;2023-06-22T10:01:58;101737.56;;;26.32;51.10
71964;BME280;59834;52.124;5.422;2023-06-22T10:04:25;101739.44;;;26.24;50.80
71964;BME280;59834;52.124;5.422;2023-06-22T10:06:52;101743.59;;;26.03;51.07
71964;BME280;59834;52.124;5.422;2023-06-22T10:09:20;101745.13;;;25.98;52.05
71964;BME280;59834;52.124;5.422;2023-06-22T10:11:47;101752.59;;;25.79;51.48
71964;BME280;59834;52.124;5.422;2023-06-22T10:14:14;101754.28;;;25.80;51.04
71964;BME280;59834;52.124;5.422;2023-06-22T10:16:40;101742.44;;;25.67;51.40
71964;BME280;59834;52.124;5.422;2023-06-22T10:19:08;101740.97;;;25.56;51.86
71964;BME280;59834;52.124;5.422;2023-06-22T10:21:34;101740.00;;;25.49;51.68
71964;BME280;59834;52.124;5.422;2023-06-22T10:24:01;101743.38;;;25.43;51.99
71964;BME280;59834;52.124;5.422;2023-06-22T10:26:33;101743.22;;;25.36;51.65
71964;BME280;59834;52.124;5.422;2023-06-22T10:29:01;101739.88;;;25.34;50.94
71964;BME280;59834;52.124;5.422;2023-06-22T10:31:42;101741.44;;;25.20;50.79
71964;BME280;59834;52.124;5.422;2023-06-22T10:34:08;101750.16;;;25.06;51.86
71964;BME280;59834;52.124;5.422;2023-06-22T10:36:35;101747.47;;;24.98;51.19
71964;BME280;59834;52.124;5.422;2023-06-22T10:39:01;101747.31;;;24.91;51.80
71964;BME280;59834;52.124;5.422;2023-06-22T10:41:29;101743.97;;;24.89;52.32
71964;BME280;59834;52.124;5.422;2023-06-22T10:43:57;101751.16;;;24.80;52.85
71964;BME280;59834;52.124;5.422;2023-06-22T10:46:25;101749.50;;;24.71;52.71
71964;BME280;59834;52.124;5.422;2023-06-22T10:48:54;101749.50;;;24.79;52.49
71964;BME280;59834;52.124;5.422;2023-06-22T10:51:23;101746.81;;;24.87;52.19
71964;BME280;59834;52.124;5.422;2023-06-22T10:53:49;101752.16;;;24.87;52.21
71964;BME280;59834;52.124;5.422;2023-06-22T10:56:18;101750.84;;;24.83;52.27
71964;BME280;59834;52.124;5.422;2023-06-22T10:58:45;101751.81;;;24.90;52.03
71964;BME280;59834;52.124;5.422;2023-06-22T11:01:12;101745.47;;;25.00;52.76
71964;BME280;59834;52.124;5.422;2023-06-22T11:03:58;101748.13;;;25.08;51.89
71964;BME280;59834;52.124;5.422;2023-06-22T11:06:25;101742.78;;;25.16;52.13
71964;BME280;59834;52.124;5.422;2023-06-22T11:08:51;101734.41;;;25.19;52.29
71964;BME280;59834;52.124;5.422;2023-06-22T11:11:30;101733.34;;;25.28;51.34
71964;BME280;59834;52.124;5.422;2023-06-22T11:13:56;101735.34;;;25.43;51.31
71964;BME280;59834;52.124;5.422;2023-06-22T11:16:23;101733.25;;;25.61;51.27
71964;BME280;59834;52.124;5.422;2023-06-22T11:18:49;101735.63;;;25.56;51.17
71964;BME280;59834;52.124;5.422;2023-06-22T11:21:16;101729.91;;;25.59;50.70
71964;BME280;59834;52.124;5.422;2023-06-22T11:23:42;101734.78;;;25.55;51.39
71964;BME280;59834;52.124;5.422;2023-06-22T11:26:09;101727.72;;;25.54;51.14
71964;BME280;59834;52.124;5.422;2023-06-22T11:28:35;101729.91;;;25.59;50.77
71964;BME280;59834;52.124;5.422;2023-06-22T11:31:02;101726.22;;;25.60;51.13
71964;BME280;59834;52.124;5.422;2023-06-22T11:33:42;101722.56;;;25.53;51.74
71964;BME280;59834;52.124;5.422;2023-06-22T11:36:08;101720.53;;;25.55;51.56
71964;BME280;59834;52.124;5.422;2023-06-22T11:38:35;101717.19;;;25.53;52.22
71964;BME280;59834;52.124;5.422;2023-06-22T11:41:03;101718.84;;;25.62;52.42
71964;BME280;59834;52.124;5.422;2023-06-22T11:43:29;101706.06;;;25.72;54.26
71964;BME280;59834;52.124;5.422;2023-06-22T11:45:56;101699.31;;;25.76;54.16
71964;BME280;59834;52.124;5.422;2023-06-22T11:48:24;101693.84;;;25.61;53.97
71964;BME280;59834;52.124;5.422;2023-06-22T11:50:51;101693.69;;;25.63;54.94
71964;BME280;59834;52.124;5.422;2023-06-22T11:53:18;101692.25;;;25.75;54.68
71964;BME280;59834;52.124;5.422;2023-06-22T11:55:44;101695.00;;;25.67;54.60
71964;BME280;59834;52.124;5.422;2023-06-22T11:58:11;101701.41;;;25.58;53.97
71964;BME280;59834;52.124;5.422;2023-06-22T12:00:38;101694.59;;;25.55;53.23
71964;BME280;59834;52.124;5.422;2023-06-22T12:03:17;101691.38;;;25.52;53.82
71964;BME280;59834;52.124;5.422;2023-06-22T12:05:44;101685.94;;;25.68;54.19
71964;BME280;59834;52.124;5.422;2023-06-22T12:08:10;101697.69;;;25.67;53.44
71964;BME280;59834;52.124;5.422;2023-06-22T12:10:38;101687.53;;;25.54;53.85
71964;BME280;59834;52.124;5.422;2023-06-22T12:13:04;101687.59;;;25.46;54.09
71964;BME280;59834;52.124;5.422;2023-06-22T12:15:31;101688.34;;;25.55;54.21
71964;BME280;59834;52.124;5.422;2023-06-22T12:17:58;101685.06;;;25.45;54.34
71964;BME280;59834;52.124;5.422;2023-06-22T12:20:24;101687.59;;;25.46;54.76
71964;BME280;59834;52.124;5.422;2023-06-22T12:22:52;101684.22;;;25.44;55.87
71964;BME280;59834;52.124;5.422;2023-06-22T12:25:19;101679.59;;;25.30;56.32
71964;BME280;59834;52.124;5.422;2023-06-22T12:27:45;101686.53;;;25.16;57.41
71964;BME280;59834;52.124;5.422;2023-06-22T12:30:12;101684.53;;;25.02;58.18
71964;BME280;59834;52.124;5.422;2023-06-22T12:32:38;101672.50;;;24.89;58.93
71964;BME280;59834;52.124;5.422;2023-06-22T12:35:05;101672.50;;;24.81;59.53
71964;BME280;59834;52.124;5.422;2023-06-22T12:37:33;101672.50;;;24.81;60.96
71964;BME280;59834;52.124;5.422;2023-06-22T12:40:00;101673.72;;;24.79;61.37
71964;BME280;59834;52.124;5.422;2023-06-22T12:42:26;101678.56;;;24.75;62.94
71964;BME280;59834;52.124;5.422;2023-06-22T12:44:54;101680.22;;;24.68;62.78
71964;BME280;59834;52.124;5.422;2023-06-22T12:47:21;101670.38;;;24.60;62.29
71964;BME280;59834;52.124;5.422;2023-06-22T12:49:48;101669.88;;;24.57;62.25
71964;BME280;59834;52.124;5.422;2023-06-22T12:52:14;101665.88;;;24.53;62.13
71964;BME280;59834;52.124;5.422;2023-06-22T12:54:41;101668.72;;;24.51;61.60
71964;BME280;59834;52.124;5.422;2023-06-22T12:57:20;101663.03;;;24.46;62.26
71964;BME280;59834;52.124;5.422;2023-06-22T12:59:46;101663.22;;;24.53;62.66
71964;BME280;59834;52.124;5.422;2023-06-22T13:02:13;101659.84;;;24.51;60.89
71964;BME280;59834;52.124;5.422;2023-06-22T13:04:40;101659.88;;;24.42;62.72